Time;durP1;ratioP1;P1;durP2;ratioP2;P2;SDS_P1;SDS_P2;PMS_P1;PMS_P2;Temp;Humidity;BMP_temperature;BMP_pressure;BME280_temperature;BME280_humidity;BME280_pressure;Samples;Min_cycle;Max_cycle;Signal;HPM_P1;HPM_P2
2024/01/12 07:06:18;;;;;;;;;;;;;;;-10.06;82.39;100079.90;113045;1241;22357;-45
2024/01/12 07:08:45;;;;;;;;;;;;;;;-10.03;82.42;100081.32;113039;1234;22495;-51
2024/01/12 07:11:11;;;;;;;;;;;;;;;-9.98;82.27;100085.45;111672;1241;24178;-51
2024/01/12 07:13:38;;;;;;;;;;;;;;;-9.94;82.19;100086.61;110444;1249;24226;-52
2024/01/12 07:16:05;;;;;;;;;;;;;;;-9.90;82.05;100088.60;110223;1238;25364;-49
2024/01/12 07:18:32;;;;;;;;;;;;;;;-9.86;82.04;100084.81;112359;1240;22480;-45
2024/01/12 07:21:03;;;;;;;;;;;;;;;-9.82;81.87;100089.20;113071;1239;22469;-46
2024/01/12 07:23:30;;;;;;;;;;;;;;;-9.76;81.94;100088.16;110316;1236;22883;-53
2024/01/12 07:26:00;;;;;;;;;;;;;;;-9.67;81.85;100090.33;110187;1244;23254;-46
2024/01/12 07:28:27;;;;;;;;;;;;;;;-9.60;81.54;100086.83;112308;1240;25218;-50
2024/01/12 07:30:54;;;;;;;;;;;;;;;-9.54;81.38;100085.06;111867;1246;23300;-51
2024/01/12 07:33:21;;;;;;;;;;;;;;;-9.49;81.05;100083.42;111165;1247;22512;-46
2024/01/12 07:35:48;;;;;;;;;;;;;;;-9.46;81.01;100078.45;111069;1245;22490;-52
2024/01/12 07:38:14;;;;;;;;;;;;;;;-9.40;80.88;100079.75;112739;1237;22496;-47
2024/01/12 07:40:41;;;;;;;;;;;;;;;-9.35;80.55;100079.75;112208;1248;22579;-51
2024/01/12 07:43:08;;;;;;;;;;;;;;;-9.31;80.46;100081.75;110537;1240;22660;-51
2024/01/12 07:45:34;;;;;;;;;;;;;;;-9.28;80.24;100085.98;110397;1240;22584;-45
2024/01/12 07:48:01;;;;;;;;;;;;;;;-9.23;80.36;100090.45;110336;1240;24179;-52
2024/01/12 07:50:28;;;;;;;;;;;;;;;-9.17;80.03;100096.82;112477;1240;22480;-51
2024/01/12 07:52:55;;;;;;;;;;;;;;;-9.12;80.25;100100.61;113089;1237;22370;-51
2024/01/12 07:55:21;;;;;;;;;;;;;;;-9.04;79.93;100103.98;112897;1237;22531;-45
2024/01/12 07:57:48;;;;;;;;;;;;;;;-8.98;79.65;100108.49;111423;1246;22590;-45
2024/01/12 08:00:15;;;;;;;;;;;;;;;-8.91;79.41;100111.96;110569;1242;23825;-51
2024/01/12 08:02:42;;;;;;;;;;;;;;;-8.86;79.27;100117.05;111075;1247;25545;-53
2024/01/12 08:05:09;;;;;;;;;;;;;;;-8.83;78.85;100125.38;110806;1249;22496;-45
2024/01/12 08:07:39;;;;;;;;;;;;;;;-8.82;79.02;100123.38;112503;1249;22521;-45
2024/01/12 08:10:08;;;;;;;;;;;;;;;-8.78;78.88;100124.19;111793;1248;24032;-48
2024/01/12 08:12:35;;;;;;;;;;;;;;;-8.75;78.96;100128.84;112401;1248;22542;-52
2024/01/12 08:15:02;;;;;;;;;;;;;;;-8.68;78.63;100131.34;113078;1249;22374;-51
2024/01/12 08:17:29;;;;;;;;;;;;;;;-8.64;78.45;100138.59;112476;1249;22705;-51
2024/01/12 08:19:56;;;;;;;;;;;;;;;-8.60;78.40;100142.25;112814;1237;22482;-44
2024/01/12 08:22:22;;;;;;;;;;;;;;;-8.55;77.96;100143.45;112848;1249;22858;-45
2024/01/12 08:24:49;;;;;;;;;;;;;;;-8.52;77.89;100149.58;113055;1249;23203;-50
2024/01/12 08:27:16;;;;;;;;;;;;;;;-8.50;77.68;100155.33;112742;1249;26461;-51
2024/01/12 08:29:45;;;;;;;;;;;;;;;-8.48;77.62;100162.05;113067;1237;22355;-51
2024/01/12 08:32:12;;;;;;;;;;;;;;;-8.44;77.56;100162.56;113034;1249;23311;-45
2024/01/12 08:34:41;;;;;;;;;;;;;;;-8.36;77.52;100169.52;112644;1249;22505;-53
2024/01/12 08:37:08;;;;;;;;;;;;;;;-8.27;77.45;100176.45;111032;1238;22483;-45
2024/01/12 08:39:35;;;;;;;;;;;;;;;-8.18;77.04;100183.38;111135;1242;22492;-44
2024/01/12 08:42:02;;;;;;;;;;;;;;;-8.11;76.55;100186.21;110552;1241;24179;-46
2024/01/12 08:44:29;;;;;;;;;;;;;;;-8.08;76.30;100188.67;110594;1240;22492;-45
2024/01/12 08:46:56;;;;;;;;;;;;;;;-8.05;75.97;100194.33;110155;1249;22653;-52
2024/01/12 08:49:22;;;;;;;;;;;;;;;-8.02;76.03;100193.30;113082;1237;22431;-51
2024/01/12 08:51:51;;;;;;;;;;;;;;;-7.96;75.97;100188.15;112954;1249;24153;-45
2024/01/12 08:54:17;;;;;;;;;;;;;;;-7.90;75.67;100187.21;113080;1237;22379;-46
2024/01/12 08:56:44;;;;;;;;;;;;;;;-7.90;74.83;100189.44;112460;1246;22532;-47
2024/01/12 08:59:10;;;;;;;;;;;;;;;-7.94;74.50;100186.05;113048;1249;22390;-46
2024/01/12 09:01:37;;;;;;;;;;;;;;;-7.99;74.54;100190.94;111354;1238;22499;-50
2024/01/12 09:04:04;;;;;;;;;;;;;;;-7.99;74.68;100188.75;111160;1247;22506;-45
2024/01/12 09:06:31;;;;;;;;;;;;;;;-7.93;74.61;100192.27;112969;1249;23244;-51
2024/01/12 09:08:58;;;;;;;;;;;;;;;-7.90;74.34;100188.73;113017;1249;22560;-45
2024/01/12 09:11:25;;;;;;;;;;;;;;;-7.85;74.20;100192.31;111825;1245;22475;-46
2024/01/12 09:13:52;;;;;;;;;;;;;;;-7.78;74.52;100195.22;111667;1249;22486;-44
2024/01/12 09:16:18;;;;;;;;;;;;;;;-7.69;74.45;100192.96;112228;1240;22519;-51
2024/01/12 09:18:45;;;;;;;;;;;;;;;-7.58;74.09;100192.04;111467;1241;23206;-51
2024/01/12 09:21:15;;;;;;;;;;;;;;;-7.46;73.27;100190.96;112088;1237;22491;-51
2024/01/12 09:23:42;;;;;;;;;;;;;;;-7.40;73.03;100189.02;113084;1249;23197;-51
2024/01/12 09:26:10;;;;;;;;;;;;;;;-7.33;73.03;100188.88;112257;1249;23200;-52
2024/01/12 09:28:37;;;;;;;;;;;;;;;-7.23;72.99;100193.08;112987;1249;22543;-46
2024/01/12 09:31:03;;;;;;;;;;;;;;;-7.12;72.64;100196.21;111776;1237;22512;-46
2024/01/12 09:33:30;;;;;;;;;;;;;;;-7.06;71.87;100190.20;113007;1249;22978;-52
2024/01/12 09:35:57;;;;;;;;;;;;;;;-7.05;71.65;100197.58;112786;1247;22604;-50
2024/01/12 09:38:24;;;;;;;;;;;;;;;-7.02;71.17;100192.99;113053;1247;22414;-45
2024/01/12 09:40:51;;;;;;;;;;;;;;;-7.01;70.98;100196.27;113029;1249;22371;-51
2024/01/12 09:43:18;;;;;;;;;;;;;;;-7.01;70.39;100190.20;112531;1248;22459;-51
2024/01/12 09:45:45;;;;;;;;;;;;;;;-7.02;70.13;100190.96;112860;1241;22446;-49
2024/01/12 09:48:12;;;;;;;;;;;;;;;-7.12;69.99;100189.06;112989;1247;22773;-50
2024/01/12 09:50:39;;;;;;;;;;;;;;;-7.27;70.56;100192.50;112970;1247;22584;-50
2024/01/12 09:53:05;;;;;;;;;;;;;;;-7.36;70.70;100190.01;112985;1245;22355;-45
2024/01/12 09:55:32;;;;;;;;;;;;;;;-7.39;70.45;100186.72;112967;1249;22576;-51
2024/01/12 09:57:59;;;;;;;;;;;;;;;-7.40;70.50;100184.27;112048;1249;22497;-47
2024/01/12 10:00:26;;;;;;;;;;;;;;;-7.39;70.63;100183.64;112667;1241;22451;-51
2024/01/12 10:02:53;;;;;;;;;;;;;;;-7.39;70.70;100183.84;111668;1248;22489;-47
2024/01/12 10:05:20;;;;;;;;;;;;;;;-7.33;70.70;100181.70;112029;1249;24153;-46
2024/01/12 10:07:47;;;;;;;;;;;;;;;-7.22;70.48;100182.32;109997;1249;25251;-50
2024/01/12 10:10:14;;;;;;;;;;;;;;;-7.05;70.41;100176.83;110292;1244;22495;-46
2024/01/12 10:12:42;;;;;;;;;;;;;;;-6.87;70.24;100176.90;111924;1249;25363;-54
2024/01/12 10:15:09;;;;;;;;;;;;;;;-6.63;69.77;100174.43;111890;1244;24187;-44
2024/01/12 10:17:36;;;;;;;;;;;;;;;-6.47;68.66;100178.50;111503;1237;22555;-46
2024/01/12 10:20:05;;;;;;;;;;;;;;;-6.15;67.76;100175.52;110219;1249;22514;-52
2024/01/12 10:22:32;;;;;;;;;;;;;;;-5.76;66.70;100178.45;112449;1249;22549;-47
2024/01/12 10:24:59;;;;;;;;;;;;;;;-5.35;65.95;100179.33;113017;1244;23091;-52
2024/01/12 10:27:26;;;;;;;;;;;;;;;-4.98;64.35;100176.93;112984;1249;23192;-46
2024/01/12 10:29:53;;;;;;;;;;;;;;;-4.72;62.93;100177.61;113002;1249;23100;-48
2024/01/12 10:32:20;;;;;;;;;;;;;;;-4.56;61.98;100177.18;113064;1248;23221;-47
2024/01/12 10:34:47;;;;;;;;;;;;;;;-4.37;61.10;100185.61;113042;1235;22825;-53
2024/01/12 10:37:16;;;;;;;;;;;;;;;-4.22;60.14;100183.20;113006;1240;22367;-53
2024/01/12 10:39:47;;;;;;;;;;;;;;;-3.99;60.00;100176.89;113027;1249;23142;-48
2024/01/12 10:42:13;;;;;;;;;;;;;;;-3.72;58.54;100177.70;112639;1244;157674;-54
2024/01/12 10:44:41;;;;;;;;;;;;;;;-3.69;55.41;100176.83;113014;1249;23086;-47
2024/01/12 10:47:15;;;;;;;;;;;;;;;-3.68;54.54;100180.61;113023;1249;23091;-48
2024/01/12 10:49:47;;;;;;;;;;;;;;;-3.69;53.03;100178.02;112604;1248;22511;-47
2024/01/12 10:52:22;;;;;;;;;;;;;;;-3.81;52.61;100182.84;111367;1240;25976;-47
2024/01/12 10:55:03;;;;;;;;;;;;;;;-3.91;52.88;100187.02;111415;1249;22561;-48
2024/01/12 10:57:32;;;;;;;;;;;;;;;-4.08;52.47;100190.16;111418;1241;25278;-52
2024/01/12 10:59:59;;;;;;;;;;;;;;;-4.26;53.03;100181.30;113049;1249;22396;-46
2024/01/12 11:02:26;;;;;;;;;;;;;;;-4.23;53.42;100182.15;113035;1245;22877;-46
2024/01/12 11:04:53;;;;;;;;;;;;;;;-4.12;53.04;100190.63;111628;1249;22489;-54
2024/01/12 11:07:20;;;;;;;;;;;;;;;-4.14;52.74;100191.71;110251;1249;22760;-48
2024/01/12 11:09:47;;;;;;;;;;;;;;;-4.22;52.42;100198.73;109734;1235;22473;-46
2024/01/12 11:12:23;;;;;;;;;;;;;;;-4.30;52.32;100197.62;110461;1249;24213;-48
2024/01/12 11:14:50;;;;;;;;;;;;;;;-4.39;52.77;100198.62;110131;1249;24294;-52
2024/01/12 11:17:17;;;;;;;;;;;;;;;-4.45;52.80;100200.97;110344;1249;22505;-50
2024/01/12 11:19:44;;;;;;;;;;;;;;;-4.64;52.69;100196.84;109936;1247;26546;-47
2024/01/12 11:22:11;;;;;;;;;;;;;;;-5.03;53.41;100194.15;112169;1234;23368;-53
2024/01/12 11:24:42;;;;;;;;;;;;;;;-5.54;54.52;100199.38;111114;1237;22510;-46
2024/01/12 11:27:12;;;;;;;;;;;;;;;-5.93;55.61;100204.20;111635;1248;23234;-54
2024/01/12 11:29:41;;;;;;;;;;;;;;;-6.01;56.69;100204.27;110745;1249;25239;-51
2024/01/12 11:32:08;;;;;;;;;;;;;;;-5.64;56.69;100207.26;110110;1249;25312;-52
2024/01/12 11:34:37;;;;;;;;;;;;;;;-5.50;55.49;100204.90;109988;1249;24257;-54
2024/01/12 11:37:08;;;;;;;;;;;;;;;-5.77;55.12;100209.82;109689;1249;24220;-46
2024/01/12 11:39:36;;;;;;;;;;;;;;;-6.14;55.63;100209.52;110541;1249;24179;-47
2024/01/12 11:42:05;;;;;;;;;;;;;;;-6.51;56.07;100207.10;110217;1249;22628;-52
2024/01/12 11:44:32;;;;;;;;;;;;;;;-6.71;57.10;100208.33;111194;1249;22865;-52
2024/01/12 11:47:00;;;;;;;;;;;;;;;-6.35;57.76;100206.77;110495;1248;25193;-52
2024/01/12 11:49:29;;;;;;;;;;;;;;;-5.67;57.12;100204.84;110504;1249;22564;-47
2024/01/12 11:52:03;;;;;;;;;;;;;;;-4.98;55.14;100207.74;110256;1249;25340;-48
2024/01/12 11:54:30;;;;;;;;;;;;;;;-4.63;53.28;100207.45;110280;1249;22492;-47
2024/01/12 11:56:57;;;;;;;;;;;;;;;-4.46;52.67;100208.43;110517;1248;24210;-52
2024/01/12 11:59:24;;;;;;;;;;;;;;;-4.13;52.46;100206.59;110219;1238;24099;-52
2024/01/12 12:01:51;;;;;;;;;;;;;;;-3.66;51.66;100200.66;110181;1249;22512;-53
2024/01/12 12:04:18;;;;;;;;;;;;;;;-3.30;50.09;100204.38;109854;1248;22514;-51
2024/01/12 12:06:47;;;;;;;;;;;;;;;-3.07;49.28;100199.61;110477;1249;25460;-53
2024/01/12 12:09:14;;;;;;;;;;;;;;;-2.86;48.11;100197.13;110294;1249;22504;-47
2024/01/12 12:11:42;;;;;;;;;;;;;;;-2.77;47.10;100198.10;113046;1248;22628;-52
2024/01/12 12:14:08;;;;;;;;;;;;;;;-2.83;47.10;100207.02;110293;1235;22580;-46
2024/01/12 12:16:35;;;;;;;;;;;;;;;-2.92;47.23;100207.71;110566;1249;26600;-53
2024/01/12 12:19:03;;;;;;;;;;;;;;;-2.85;47.76;100209.09;110090;1249;22568;-47
2024/01/12 12:21:30;;;;;;;;;;;;;;;-2.69;46.69;100214.75;110003;1249;22494;-53
2024/01/12 12:23:58;;;;;;;;;;;;;;;-2.84;45.92;100226.55;110033;1249;22497;-52
2024/01/12 12:26:25;;;;;;;;;;;;;;;-3.20;46.42;100230.15;109821;1248;22501;-51
2024/01/12 12:28:54;;;;;;;;;;;;;;;-3.38;46.53;100230.71;109827;1249;24222;-47
2024/01/12 12:31:21;;;;;;;;;;;;;;;-3.36;47.02;100233.35;110590;1249;22515;-48
2024/01/12 12:33:48;;;;;;;;;;;;;;;-3.19;47.61;100237.50;110371;1249;24211;-46
2024/01/12 12:36:17;;;;;;;;;;;;;;;-3.02;47.04;100240.66;110285;1249;26045;-52
2024/01/12 12:38:44;;;;;;;;;;;;;;;-3.20;46.29;100242.28;110050;1249;22620;-45
2024/01/12 12:41:11;;;;;;;;;;;;;;;-3.66;46.84;100249.11;109607;1249;24221;-51
2024/01/12 12:43:38;;;;;;;;;;;;;;;-4.07;47.90;100256.84;110275;1249;24929;-51
2024/01/12 12:46:05;;;;;;;;;;;;;;;-4.31;48.63;100263.95;109889;1241;24579;-51
2024/01/12 12:48:32;;;;;;;;;;;;;;;-4.66;49.39;100267.02;110400;1249;22519;-52
2024/01/12 12:51:00;;;;;;;;;;;;;;;-5.05;49.89;100275.35;109936;1236;25364;-52
2024/01/12 12:53:27;;;;;;;;;;;;;;;-5.42;50.44;100276.27;110167;1237;22561;-45
2024/01/12 12:55:54;;;;;;;;;;;;;;;-5.49;51.59;100275.98;109734;1249;22569;-46
2024/01/12 12:58:21;;;;;;;;;;;;;;;-5.34;51.80;100277.12;111293;1249;23297;-51
2024/01/12 13:00:47;;;;;;;;;;;;;;;-5.23;51.74;100284.08;110947;1248;22492;-51
2024/01/12 13:03:14;;;;;;;;;;;;;;;-5.25;51.82;100284.13;111143;1249;22495;-51
2024/01/12 13:05:41;;;;;;;;;;;;;;;-5.34;52.49;100286.65;111284;1249;22454;-51
2024/01/12 13:08:08;;;;;;;;;;;;;;;-5.27;52.91;100285.54;112753;1248;25416;-47
2024/01/12 13:10:35;;;;;;;;;;;;;;;-5.05;53.06;100279.92;112952;1248;22442;-51
2024/01/12 13:13:03;;;;;;;;;;;;;;;-4.73;51.94;100287.66;111715;1249;25505;-52
2024/01/12 13:15:34;;;;;;;;;;;;;;;-4.70;51.26;100284.08;110914;1249;25372;-51
2024/01/12 13:18:01;;;;;;;;;;;;;;;-4.93;51.30;100282.55;110320;1248;25367;-52
2024/01/12 13:20:29;;;;;;;;;;;;;;;-5.11;51.56;100278.05;110659;1249;22614;-50
2024/01/12 13:22:56;;;;;;;;;;;;;;;-5.25;51.91;100269.32;111194;1249;22529;-46
2024/01/12 13:25:23;;;;;;;;;;;;;;;-5.42;52.19;100270.13;109991;1249;22610;-52
2024/01/12 13:27:50;;;;;;;;;;;;;;;-5.64;52.71;100270.45;110255;1249;24193;-46
2024/01/12 13:30:17;;;;;;;;;;;;;;;-5.95;53.05;100273.60;110089;1249;22480;-51
2024/01/12 13:32:44;;;;;;;;;;;;;;;-6.30;53.83;100271.48;112216;1248;23222;-45
2024/01/12 13:35:12;;;;;;;;;;;;;;;-6.59;54.86;100267.30;110634;1249;24236;-44
2024/01/12 13:37:38;;;;;;;;;;;;;;;-6.84;55.50;100270.36;112423;1248;22469;-51
2024/01/12 13:40:05;;;;;;;;;;;;;;;-7.04;56.03;100274.76;110737;1249;22466;-49
2024/01/12 13:42:32;;;;;;;;;;;;;;;-7.21;56.46;100280.18;110348;1249;22519;-52
2024/01/12 13:45:00;;;;;;;;;;;;;;;-7.31;56.88;100283.36;110004;1249;25360;-46
2024/01/12 13:47:28;;;;;;;;;;;;;;;-7.16;57.11;100281.39;110808;1249;25440;-50
2024/01/12 13:49:55;;;;;;;;;;;;;;;-6.97;56.97;100281.49;110422;1249;25497;-46
2024/01/12 13:52:22;;;;;;;;;;;;;;;-7.10;56.77;100283.29;112248;1248;25360;-46
2024/01/12 13:54:49;;;;;;;;;;;;;;;-7.40;57.25;100287.69;111109;1249;22497;-51
2024/01/12 13:57:16;;;;;;;;;;;;;;;-7.66;57.95;100291.75;110051;1249;22471;-51
2024/01/12 13:59:43;;;;;;;;;;;;;;;-7.89;58.86;100287.23;110499;1249;22510;-45
2024/01/12 14:02:10;;;;;;;;;;;;;;;-8.08;59.43;100294.30;110489;1249;25384;-47
2024/01/12 14:04:37;;;;;;;;;;;;;;;-8.25;60.08;100299.30;112170;1249;22529;-44
2024/01/12 14:07:04;;;;;;;;;;;;;;;-8.40;60.80;100304.95;111915;1237;25330;-45
2024/01/12 14:09:31;;;;;;;;;;;;;;;-8.52;61.35;100307.43;111716;1247;22545;-46
2024/01/12 14:11:58;;;;;;;;;;;;;;;-8.64;61.75;100315.66;111005;1249;25298;-45
2024/01/12 14:14:25;;;;;;;;;;;;;;;-8.78;61.98;100314.89;112842;1249;22462;-45
